createdAt,value
2019-02-15T00:02:17.127Z,102901.23
2019-02-15T00:04:49.948Z,102905.29
2019-02-15T00:07:23.554Z,102904.95
2019-02-15T00:09:54.940Z,102900.48
2019-02-15T00:12:26.424Z,102901.86
2019-02-15T00:14:57.732Z,102897.75
2019-02-15T00:18:07.526Z,102902.42
2019-02-15T00:20:48.926Z,102902.15
2019-02-15T00:23:19.843Z,102904.00
2019-02-15T00:25:50.862Z,102901.09
2019-02-15T00:28:21.041Z,102904.27
2019-02-15T00:30:51.616Z,102897.47
2019-02-15T00:33:22.175Z,102894.88
2019-02-15T00:35:55.507Z,102890.54
2019-02-15T00:38:27.364Z,102895.58
2019-02-15T00:40:58.166Z,102893.79
2019-02-15T00:43:28.688Z,102892.80
2019-02-15T00:46:24.910Z,102899.22
2019-02-15T00:48:56.710Z,102897.70
2019-02-15T00:51:41.536Z,102902.52
2019-02-15T00:54:31.714Z,102897.03
2019-02-15T00:57:33.964Z,102891.57
2019-02-15T01:00:35.969Z,102887.02
2019-02-15T01:03:33.210Z,102887.02
2019-02-15T01:06:22.175Z,102884.37
2019-02-15T01:09:03.882Z,102876.05
2019-02-15T01:11:56.222Z,102878.91
2019-02-15T01:14:26.965Z,102882.46
2019-02-15T01:16:57.917Z,102875.97
2019-02-15T01:19:34.092Z,102885.34
2019-02-15T01:22:05.154Z,102878.61
2019-02-15T01:24:35.696Z,102876.55
2019-02-15T01:27:23.110Z,102870.11
2019-02-15T01:30:12.968Z,102876.00
2019-02-15T01:33:08.027Z,102881.67
2019-02-15T01:36:03.151Z,102876.53
2019-02-15T01:39:09.067Z,102873.28
2019-02-15T01:41:51.360Z,102863.16
2019-02-15T01:44:32.298Z,102860.59
2019-02-15T01:47:13.387Z,102859.84
2019-02-15T01:49:44.214Z,102855.23
2019-02-15T01:52:15.641Z,102854.52
2019-02-15T01:54:46.710Z,102854.80
2019-02-15T01:57:18.299Z,102851.48
2019-02-15T01:59:49.006Z,102847.77
2019-02-15T02:02:20.197Z,102842.84
2019-02-15T02:04:50.911Z,102855.88
2019-02-15T02:07:23.136Z,102851.56
2019-02-15T02:09:53.459Z,102843.80
2019-02-15T02:12:24.096Z,102835.31
2019-02-15T02:14:55.651Z,102834.95
2019-02-15T02:17:26.723Z,102836.42
2019-02-15T02:19:56.965Z,102828.48
2019-02-15T02:22:27.126Z,102823.56
2019-02-15T02:24:58.508Z,102822.28
2019-02-15T02:27:30.725Z,102818.10
2019-02-15T02:30:02.776Z,102822.38
2019-02-15T02:32:36.883Z,102819.69
2019-02-15T02:35:08.954Z,102814.00
2019-02-15T02:37:40.579Z,102815.23
2019-02-15T02:40:13.235Z,102813.56
2019-02-15T02:42:44.572Z,102815.16
2019-02-15T02:45:17.701Z,102817.05
2019-02-15T02:47:48.260Z,102818.48
2019-02-15T02:50:20.281Z,102814.46
2019-02-15T02:52:51.308Z,102813.06
2019-02-15T02:55:24.828Z,102818.84
2019-02-15T02:57:55.978Z,102813.55
2019-02-15T03:00:33.672Z,102815.07
2019-02-15T03:03:00.436Z,102819.17
2019-02-15T03:05:32.254Z,102814.30
2019-02-15T03:08:02.411Z,102815.53
2019-02-15T03:10:33.295Z,102812.60
2019-02-15T03:13:08.901Z,102809.44
2019-02-15T03:15:40.051Z,102815.13
2019-02-15T03:18:11.057Z,102814.20
2019-02-15T03:20:44.126Z,102809.98
2019-02-15T03:23:15.741Z,102808.03
2019-02-15T03:25:47.482Z,102801.09
2019-02-15T03:28:18.876Z,102793.42
2019-02-15T03:30:51.900Z,102808.70
2019-02-15T03:33:22.081Z,102804.74
2019-02-15T03:36:01.769Z,102807.33
2019-02-15T03:38:44.933Z,102799.89
2019-02-15T03:41:30.697Z,102800.67
2019-02-15T03:44:01.956Z,102798.07
2019-02-15T03:46:34.344Z,102803.17
2019-02-15T03:49:05.569Z,102803.17
2019-02-15T03:51:40.295Z,102793.39
2019-02-15T03:54:15.110Z,102798.13
2019-02-15T03:56:46.440Z,102791.98
2019-02-15T03:59:19.404Z,102792.36
2019-02-15T04:01:52.811Z,102790.02
2019-02-15T04:04:23.788Z,102789.13
2019-02-15T04:06:57.306Z,102790.78
2019-02-15T04:09:29.983Z,102789.80
2019-02-15T04:12:03.578Z,102791.59
2019-02-15T04:14:35.099Z,102792.24
2019-02-15T04:17:07.999Z,102795.30
2019-02-15T04:19:40.145Z,102798.92
2019-02-15T04:22:11.038Z,102792.73
2019-02-15T04:24:44.498Z,102793.98
2019-02-15T04:27:16.040Z,102795.61
2019-02-15T04:29:47.754Z,102796.87
2019-02-15T04:32:18.435Z,102798.89
2019-02-15T04:34:48.918Z,102793.98
2019-02-15T04:37:19.272Z,102795.21
2019-02-15T04:39:52.767Z,102788.74
2019-02-15T04:42:23.495Z,102790.57
2019-02-15T04:44:54.707Z,102791.01
2019-02-15T04:47:26.570Z,102783.69
2019-02-15T04:49:58.415Z,102791.19
2019-02-15T04:52:30.655Z,102794.12
2019-02-15T04:55:01.342Z,102787.34
2019-02-15T04:57:34.513Z,102791.77
2019-02-15T05:00:08.001Z,102786.45
2019-02-15T05:02:44.768Z,102788.98
2019-02-15T05:05:15.353Z,102785.63
2019-02-15T05:07:46.465Z,102786.69
2019-02-15T05:10:18.186Z,102783.14
2019-02-15T05:12:48.859Z,102775.78
2019-02-15T05:15:19.392Z,102783.00
2019-02-15T05:17:50.829Z,102784.07
2019-02-15T05:20:22.247Z,102775.23
2019-02-15T05:22:54.052Z,102776.77
2019-02-15T05:25:28.023Z,102771.12
2019-02-15T05:27:59.129Z,102778.02
2019-02-15T05:30:31.436Z,102772.97
2019-02-15T05:33:02.035Z,102782.84
2019-02-15T05:35:33.395Z,102770.75
2019-02-15T05:38:07.570Z,102770.14
2019-02-15T05:40:38.624Z,102773.86
2019-02-15T05:43:09.132Z,102774.73
2019-02-15T05:45:39.293Z,102777.56
2019-02-15T05:51:02.341Z,102774.30
2019-02-15T05:53:36.807Z,102771.55
2019-02-15T05:56:07.549Z,102776.44
2019-02-15T05:58:39.496Z,102775.94
2019-02-15T06:01:17.229Z,102778.27
2019-02-15T06:03:50.005Z,102784.12
2019-02-15T06:06:22.926Z,102776.20
2019-02-15T06:08:53.554Z,102782.75
2019-02-15T06:11:25.014Z,102786.14
2019-02-15T06:13:55.302Z,102786.96
2019-02-15T06:16:26.382Z,102789.09
2019-02-15T06:18:57.494Z,102792.20
2019-02-15T06:21:29.764Z,102788.83
2019-02-15T06:24:00.407Z,102784.16
2019-02-15T06:26:31.443Z,102791.38
2019-02-15T06:29:02.847Z,102790.20
2019-02-15T06:31:35.098Z,102792.97
2019-02-15T06:34:07.550Z,102796.12
2019-02-15T06:36:38.379Z,102789.30
2019-02-15T06:39:11.742Z,102799.39
2019-02-15T06:41:42.764Z,102794.02
2019-02-15T06:44:15.157Z,102799.69
2019-02-15T06:46:47.699Z,102800.41
2019-02-15T06:49:19.631Z,102807.31
2019-02-15T06:51:50.652Z,102806.98
2019-02-15T06:54:21.582Z,102804.33
2019-02-15T06:56:54.370Z,102806.87
2019-02-15T06:59:39.404Z,102802.36
2019-02-15T07:02:18.963Z,102810.73
2019-02-15T07:05:13.819Z,102804.12
2019-02-15T07:07:46.736Z,102812.31
2019-02-15T07:10:18.530Z,102817.78
2019-02-15T07:12:49.576Z,102816.53
2019-02-15T07:15:22.882Z,102819.97
2019-02-15T07:17:53.361Z,102819.61
2019-02-15T07:20:23.442Z,102821.05
2019-02-15T07:22:55.139Z,102813.59
2019-02-15T07:25:26.444Z,102825.73
2019-02-15T07:27:56.584Z,102829.09
2019-02-15T07:30:27.031Z,102833.80
2019-02-15T07:32:57.640Z,102832.38
2019-02-15T07:35:28.302Z,102827.02
2019-02-15T07:38:01.055Z,102830.80
2019-02-15T07:40:31.242Z,102834.80
2019-02-15T07:43:01.805Z,102830.41
2019-02-15T07:45:42.464Z,102831.18
2019-02-15T07:48:07.819Z,102837.06
2019-02-15T07:50:39.207Z,102837.95
2019-02-15T07:53:09.376Z,102816.58
2019-02-15T07:55:41.971Z,102837.19
2019-02-15T07:58:13.328Z,102832.19
2019-02-15T08:00:44.981Z,102827.36
2019-02-15T08:03:17.489Z,102829.09
2019-02-15T08:05:51.126Z,102827.60
2019-02-15T08:08:23.681Z,102827.01
2019-02-15T08:10:54.473Z,102826.02
2019-02-15T08:13:26.991Z,102822.83
2019-02-15T08:15:58.783Z,102822.42
2019-02-15T08:18:33.195Z,102809.81
2019-02-15T08:21:05.108Z,102814.77
2019-02-15T08:23:36.914Z,102814.61
2019-02-15T08:26:09.999Z,102809.11
2019-02-15T08:28:41.843Z,102810.67
2019-02-15T08:31:13.386Z,102811.97
2019-02-15T08:33:49.152Z,102816.64
2019-02-15T08:36:20.998Z,102805.98
2019-02-15T08:38:51.603Z,102804.74
2019-02-15T08:41:24.672Z,102802.09
2019-02-15T08:43:56.517Z,102801.56
2019-02-15T08:46:31.317Z,102793.26
2019-02-15T08:49:04.526Z,102794.15
2019-02-15T08:51:35.041Z,102792.41
2019-02-15T08:54:05.306Z,102791.28
2019-02-15T08:56:39.711Z,102791.98
2019-02-15T08:59:11.166Z,102796.64
2019-02-15T09:01:41.923Z,102795.77
2019-02-15T09:04:15.084Z,102791.09
2019-02-15T09:06:45.934Z,102791.12
2019-02-15T09:09:20.238Z,102786.73
2019-02-15T09:11:51.712Z,102787.48
2019-02-15T09:14:22.266Z,102779.95
2019-02-15T09:16:53.251Z,102782.94
2019-02-15T09:19:24.289Z,102780.42
2019-02-15T09:21:55.565Z,102777.83
2019-02-15T09:24:27.381Z,102776.16
2019-02-15T09:27:01.831Z,102776.73
2019-02-15T09:30:03.873Z,102780.55
2019-02-15T09:32:36.371Z,102777.02
2019-02-15T09:35:07.740Z,102779.39
2019-02-15T09:37:39.613Z,102775.51
2019-02-15T09:40:15.778Z,102775.94
2019-02-15T09:42:49.197Z,102773.47
2019-02-15T09:45:21.780Z,102765.45
2019-02-15T09:47:53.411Z,102761.50
2019-02-15T09:50:23.997Z,102760.98
2019-02-15T09:52:55.042Z,102762.63
2019-02-15T09:55:25.868Z,102767.07
2019-02-15T09:58:02.566Z,102758.81
2019-02-15T10:00:33.078Z,102755.72
2019-02-15T10:03:03.762Z,102759.66
2019-02-15T10:05:39.622Z,102761.89
2019-02-15T10:08:10.088Z,102762.66
2019-02-15T10:10:41.033Z,102752.55
2019-02-15T10:13:11.812Z,102746.84
2019-02-15T10:15:42.048Z,102760.06
2019-02-15T10:18:13.777Z,102760.12
2019-02-15T10:20:45.247Z,102761.73
2019-02-15T10:23:17.026Z,102757.34
2019-02-15T10:25:47.633Z,102758.76
2019-02-15T10:28:18.723Z,102756.49
2019-02-15T10:30:51.888Z,102754.67
2019-02-15T10:33:22.201Z,102754.73
2019-02-15T10:35:52.979Z,102755.08
2019-02-15T10:38:23.845Z,102757.16
2019-02-15T10:40:55.349Z,102747.89
2019-02-15T10:43:26.819Z,102751.36
2019-02-15T10:45:57.437Z,102756.13
2019-02-15T10:48:27.655Z,102747.00
2019-02-15T10:50:59.191Z,102748.80
2019-02-15T10:53:31.576Z,102747.13
2019-02-15T10:56:02.676Z,102748.39
2019-02-15T10:58:37.059Z,102748.28
2019-02-15T11:01:12.548Z,102749.78
2019-02-15T11:03:45.023Z,102737.27
2019-02-15T11:06:16.084Z,102739.68
2019-02-15T11:08:47.597Z,102733.94
2019-02-15T11:11:18.213Z,102730.95
2019-02-15T11:13:50.678Z,102734.16
2019-02-15T11:16:22.371Z,102727.19
2019-02-15T11:18:56.006Z,102725.55
2019-02-15T11:21:33.053Z,102722.69
2019-02-15T11:24:06.734Z,102720.87
2019-02-15T11:26:43.313Z,102713.25
2019-02-15T11:29:16.458Z,102709.91
2019-02-15T11:31:50.381Z,102712.93
2019-02-15T11:34:21.791Z,102710.94
2019-02-15T11:37:08.022Z,102706.38
2019-02-15T11:39:41.773Z,102700.39
2019-02-15T11:42:22.837Z,102700.39
2019-02-15T11:44:55.203Z,102701.49
2019-02-15T11:47:26.431Z,102705.34
2019-02-15T11:49:58.293Z,102712.93
2019-02-15T11:52:33.079Z,102704.41
2019-02-15T11:55:06.654Z,102697.96
2019-02-15T11:57:39.498Z,102696.61
2019-02-15T12:00:23.143Z,102685.07
2019-02-15T12:02:55.704Z,102684.50
2019-02-15T12:05:30.760Z,102675.82
2019-02-15T12:08:01.525Z,102658.38
2019-02-15T12:10:46.409Z,102658.38
2019-02-15T12:13:21.461Z,102655.59
2019-02-15T12:15:51.704Z,102654.06
2019-02-15T12:18:25.239Z,102639.95
2019-02-15T12:20:59.797Z,102642.20
2019-02-15T12:23:33.365Z,102643.28
2019-02-15T12:26:04.906Z,102638.91
2019-02-15T12:28:39.340Z,102638.62
2019-02-15T12:31:11.675Z,102638.55
2019-02-15T12:33:42.801Z,102636.39
2019-02-15T12:36:15.487Z,102632.44
2019-02-15T12:38:48.054Z,102623.55
2019-02-15T12:41:20.251Z,102638.77
2019-02-15T12:43:53.978Z,102624.56
2019-02-15T12:46:26.287Z,102609.00
2019-02-15T12:48:59.405Z,102612.47
2019-02-15T12:51:32.122Z,102614.62
2019-02-15T12:54:03.314Z,102598.41
2019-02-15T12:56:34.350Z,102592.08
2019-02-15T12:59:13.013Z,102591.75
2019-02-15T13:01:45.981Z,102585.13
2019-02-15T13:04:20.223Z,102578.55
2019-02-15T13:06:55.054Z,102570.97
2019-02-15T13:09:27.685Z,102570.99
2019-02-15T13:11:58.926Z,102563.04
2019-02-15T13:14:30.064Z,102565.91
2019-02-15T13:17:03.807Z,102562.25
2019-02-15T13:19:35.746Z,102557.78
2019-02-15T13:22:08.682Z,102547.38
2019-02-15T13:24:43.141Z,102555.34
2019-02-15T13:27:15.106Z,102542.48
2019-02-15T13:29:57.839Z,102546.66
2019-02-15T13:32:30.476Z,102540.78
2019-02-15T13:35:03.643Z,102534.20
2019-02-15T13:37:37.179Z,102530.33
2019-02-15T13:40:12.239Z,102529.16
2019-02-15T13:42:51.349Z,102521.41
2019-02-15T13:45:26.572Z,102510.52
2019-02-15T13:47:57.072Z,102508.14
2019-02-15T13:50:28.927Z,102504.95
2019-02-15T13:53:01.991Z,102508.53
2019-02-15T13:55:35.938Z,102504.36
2019-02-15T13:58:07.184Z,102496.78
2019-02-15T14:00:39.727Z,102488.13
2019-02-15T14:03:15.561Z,102479.04
2019-02-15T14:05:48.163Z,102484.63
2019-02-15T14:08:22.832Z,102480.53
2019-02-15T14:10:54.574Z,102478.80
2019-02-15T14:13:26.001Z,102474.26
2019-02-15T14:15:58.251Z,102462.48
2019-02-15T14:18:32.879Z,102459.20
2019-02-15T14:21:07.116Z,102455.30
2019-02-15T14:23:39.420Z,102456.30
2019-02-15T14:26:11.501Z,102453.70
2019-02-15T14:28:42.924Z,102454.41
2019-02-15T14:31:14.328Z,102449.56
2019-02-15T14:33:46.217Z,102447.95
2019-02-15T14:36:20.027Z,102444.89
2019-02-15T14:38:51.840Z,102448.66
2019-02-15T14:41:28.011Z,102440.73
2019-02-15T14:44:01.349Z,102433.28
2019-02-15T14:46:33.708Z,102439.98
2019-02-15T14:52:26.316Z,102421.94
2019-02-15T14:55:13.093Z,102424.33
2019-02-15T15:00:51.652Z,102415.09
2019-02-15T15:03:53.261Z,102422.91
2019-02-15T15:09:25.192Z,102409.25
2019-02-15T15:12:06.057Z,102413.20
2019-02-15T15:14:48.746Z,102401.95
2019-02-15T15:17:23.266Z,102399.61
2019-02-15T15:19:57.486Z,102392.63
2019-02-15T15:22:34.440Z,102388.72
2019-02-15T15:25:05.034Z,102391.46
2019-02-15T15:27:39.064Z,102385.25
2019-02-15T15:30:11.688Z,102385.47
2019-02-15T15:32:45.210Z,102380.62
2019-02-15T15:35:17.994Z,102377.45
2019-02-15T15:37:53.381Z,102370.50
2019-02-15T15:40:25.589Z,102375.27
2019-02-15T15:43:03.806Z,102366.49
2019-02-15T15:45:41.904Z,102368.86
2019-02-15T15:48:22.674Z,102368.20
2019-02-15T15:50:49.081Z,102360.66
2019-02-15T15:53:22.225Z,102362.42
2019-02-15T15:55:59.307Z,102364.85
2019-02-15T15:58:32.706Z,102353.46
2019-02-15T16:01:03.767Z,102357.78
2019-02-15T16:03:35.408Z,102352.41
2019-02-15T16:06:06.787Z,102355.84
2019-02-15T16:08:37.430Z,102358.38
2019-02-15T16:11:08.073Z,102352.37
2019-02-15T16:13:39.705Z,102352.54
2019-02-15T16:16:10.696Z,102357.11
2019-02-15T16:18:42.771Z,102341.53
2019-02-15T16:21:19.626Z,102346.77
2019-02-15T16:23:52.126Z,102341.83
2019-02-15T16:26:25.621Z,102344.48
2019-02-15T16:28:57.545Z,102337.34
2019-02-15T16:31:28.194Z,102336.13
2019-02-15T16:33:58.805Z,102332.72
2019-02-15T16:36:32.299Z,102338.42
2019-02-15T16:39:08.422Z,102337.90
2019-02-15T16:41:41.760Z,102341.31
2019-02-15T16:44:14.260Z,102331.05
2019-02-15T16:46:47.899Z,102335.16
2019-02-15T16:49:20.777Z,102339.91
2019-02-15T16:51:52.394Z,102336.05
2019-02-15T17:00:40.136Z,102330.23
2019-02-15T17:03:13.364Z,102333.24
2019-02-15T17:05:48.143Z,102343.22
2019-02-15T17:12:50.388Z,102337.31
2019-02-15T17:15:54.838Z,102344.87
2019-02-15T17:18:29.254Z,102342.20
2019-02-15T17:21:08.454Z,102336.28
2019-02-15T17:23:44.382Z,102343.62
2019-02-15T17:26:17.701Z,102340.13
2019-02-15T17:28:51.979Z,102344.34
2019-02-15T17:31:25.665Z,102338.09
2019-02-15T17:34:00.153Z,102345.50
2019-02-15T17:36:31.698Z,102338.25
2019-02-15T17:39:02.834Z,102348.96
2019-02-15T17:41:36.253Z,102341.00
2019-02-15T17:44:14.411Z,102342.27
2019-02-15T17:46:55.099Z,102344.70
2019-02-15T17:49:36.967Z,102337.36
2019-02-15T17:52:10.398Z,102338.52
2019-02-15T17:54:44.813Z,102332.76
2019-02-15T17:57:17.217Z,102337.69
2019-02-15T17:59:50.336Z,102329.16
2019-02-15T18:02:22.072Z,102327.02
2019-02-15T18:11:49.988Z,102331.02
2019-02-15T18:14:25.006Z,102331.02
2019-02-15T18:17:21.834Z,102331.33
2019-02-15T18:19:56.210Z,102328.87
2019-02-15T18:22:29.265Z,102335.17
2019-02-15T18:25:03.354Z,102336.38
2019-02-15T18:27:36.497Z,102336.22
2019-02-15T18:30:11.174Z,102334.94
2019-02-15T18:32:44.450Z,102338.08
2019-02-15T18:35:17.944Z,102333.69
2019-02-15T18:37:58.618Z,102330.01
2019-02-15T18:40:29.946Z,102331.36
2019-02-15T18:43:03.513Z,102331.23
2019-02-15T18:45:35.147Z,102332.73
2019-02-15T18:48:08.741Z,102322.86
2019-02-15T18:50:43.743Z,102321.79
2019-02-15T18:54:29.012Z,102321.98
2019-02-15T18:57:04.303Z,102318.67
2019-02-15T18:59:36.932Z,102317.84
2019-02-15T19:02:08.297Z,102318.54
2019-02-15T19:04:44.869Z,102322.48
2019-02-15T19:07:23.916Z,102319.86
2019-02-15T19:10:35.913Z,102319.17
2019-02-15T19:17:10.929Z,102321.63
2019-02-15T19:20:07.625Z,102319.13
2019-02-15T19:22:40.764Z,102311.84
2019-02-15T19:25:30.297Z,102309.37
2019-02-15T19:28:04.895Z,102309.67
2019-02-15T19:30:37.188Z,102305.40
2019-02-15T19:33:09.928Z,102302.52
2019-02-15T19:35:59.474Z,102302.02
2019-02-15T19:38:34.507Z,102314.20
2019-02-15T19:41:05.548Z,102307.31
2019-02-15T19:43:36.908Z,102304.65
2019-02-15T19:46:09.348Z,102313.21
2019-02-15T19:48:41.583Z,102309.55
2019-02-15T19:51:12.764Z,102309.58
2019-02-15T19:53:49.200Z,102310.94
2019-02-15T19:56:21.782Z,102307.61
2019-02-15T19:58:52.891Z,102305.23
2019-02-15T20:01:30.291Z,102306.20
2019-02-15T20:04:06.722Z,102306.28
2019-02-15T20:06:41.024Z,102310.41
2019-02-15T20:09:14.775Z,102309.91
2019-02-15T20:11:47.133Z,102306.30
2019-02-15T20:14:22.159Z,102304.89
2019-02-15T20:16:58.771Z,102300.96
2019-02-15T20:19:33.451Z,102299.39
2019-02-15T20:22:06.487Z,102302.79
2019-02-15T20:24:43.043Z,102302.62
2019-02-15T20:27:21.641Z,102296.34
2019-02-15T20:29:54.492Z,102296.70
2019-02-15T20:32:26.997Z,102288.67
2019-02-15T20:35:13.375Z,102290.85
2019-02-15T20:37:47.262Z,102294.45
2019-02-15T20:40:21.999Z,102301.58
2019-02-15T20:42:53.210Z,102303.22
2019-02-15T20:45:27.258Z,102298.97
2019-02-15T20:48:01.758Z,102296.56
2019-02-15T20:50:35.397Z,102296.81
2019-02-15T20:53:17.861Z,102298.27
2019-02-15T20:56:09.828Z,102289.22
2019-02-15T20:58:44.923Z,102293.00
2019-02-15T21:01:22.278Z,102290.59
2019-02-15T21:03:59.223Z,102287.75
2019-02-15T21:06:49.386Z,102292.52
2019-02-15T21:09:35.263Z,102285.77
2019-02-15T21:12:10.796Z,102294.59
2019-02-15T21:14:45.653Z,102291.53
2019-02-15T21:17:17.900Z,102288.86
2019-02-15T21:19:53.565Z,102298.71
2019-02-15T21:22:34.190Z,102305.83
2019-02-15T21:25:08.249Z,102289.29
2019-02-15T21:27:41.264Z,102290.20
2019-02-15T21:30:16.270Z,102294.64
2019-02-15T21:32:48.618Z,102295.86
2019-02-15T21:35:21.341Z,102290.40
2019-02-15T21:37:51.621Z,102281.70
2019-02-15T21:40:23.105Z,102289.57
2019-02-15T21:42:56.971Z,102290.91
2019-02-15T21:45:27.442Z,102289.19
2019-02-15T21:48:00.704Z,102290.13
2019-02-15T21:50:31.741Z,102293.14
2019-02-15T21:53:03.965Z,102292.36
2019-02-15T21:55:36.653Z,102296.04
2019-02-15T21:58:08.745Z,102290.03
2019-02-15T22:00:39.446Z,102292.74
2019-02-15T22:03:10.492Z,102281.59
2019-02-15T22:05:43.231Z,102290.61
2019-02-15T22:08:16.411Z,102287.36
2019-02-15T22:10:48.025Z,102279.88
2019-02-15T22:14:20.069Z,102276.08
2019-02-15T22:17:02.845Z,102275.88
2019-02-15T22:19:35.927Z,102276.53
2019-02-15T22:22:07.840Z,102277.47
2019-02-15T22:24:38.934Z,102277.46
2019-02-15T22:27:11.398Z,102276.06
2019-02-15T22:29:43.173Z,102276.01
2019-02-15T22:32:14.380Z,102274.37
2019-02-15T22:34:45.790Z,102274.00
2019-02-15T22:37:16.616Z,102269.48
2019-02-15T22:39:47.986Z,102269.22
2019-02-15T22:42:21.770Z,102273.86
2019-02-15T22:44:53.469Z,102266.80
2019-02-15T22:47:24.836Z,102264.28
2019-02-15T22:49:58.053Z,102268.63
2019-02-15T22:52:31.769Z,102265.73
2019-02-15T22:55:06.655Z,102264.23
2019-02-15T22:57:36.936Z,102260.31
2019-02-15T23:00:13.272Z,102265.64
2019-02-15T23:02:46.218Z,102254.61
2019-02-15T23:05:22.169Z,102254.00
2019-02-15T23:07:54.076Z,102249.47
2019-02-15T23:10:24.375Z,102247.96
2019-02-15T23:13:00.293Z,102247.74
2019-02-15T23:15:34.783Z,102249.67
2019-02-15T23:18:06.364Z,102254.67
2019-02-15T23:20:45.486Z,102251.19
2019-02-15T23:23:21.180Z,102249.52
2019-02-15T23:25:54.475Z,102254.72
2019-02-15T23:28:30.381Z,102242.77
2019-02-15T23:31:09.032Z,102244.24
2019-02-15T23:33:41.685Z,102244.75
2019-02-15T23:36:30.900Z,102254.30
2019-02-15T23:39:04.909Z,102252.28
2019-02-15T23:41:38.157Z,102254.27
2019-02-15T23:44:08.322Z,102251.97
2019-02-15T23:46:38.511Z,102244.42
2019-02-15T23:49:09.216Z,102246.41
2019-02-15T23:51:58.063Z,102248.44
2019-02-15T23:54:30.399Z,102241.66
2019-02-15T23:57:05.124Z,102233.51
2019-02-15T23:59:35.319Z,102234.33
